Time;durP1;ratioP1;P1;durP2;ratioP2;P2;SDS_P1;SDS_P2;PMS_P1;PMS_P2;Temp;Humidity;BMP_temperature;BMP_pressure;BME280_temperature;BME280_humidity;BME280_pressure;Samples;Min_cycle;Max_cycle;Signal;HPM_P1;HPM_P2
2023/08/18 00:00:15;;;;;;;3.50;3.20;;;19.40;99.90;;;;;;5072665;28;20115;-43
2023/08/18 00:02:41;;;;;;;3.25;2.97;;;19.40;99.90;;;;;;5066339;28;20124;-43
2023/08/18 00:05:07;;;;;;;2.90;2.60;;;19.40;99.90;;;;;;5069290;28;20012;-43
2023/08/18 00:07:33;;;;;;;3.63;3.33;;;19.30;99.90;;;;;;5075681;28;20039;-42
2023/08/18 00:10:00;;;;;;;4.03;3.63;;;19.30;99.90;;;;;;5074458;28;20025;-43
2023/08/18 00:12:25;;;;;;;3.85;3.10;;;19.30;99.90;;;;;;5070459;28;20036;-43
2023/08/18 00:14:52;;;;;;;3.85;3.42;;;19.30;99.90;;;;;;5063807;28;20392;-43
2023/08/18 00:17:17;;;;;;;3.80;3.50;;;19.20;99.90;;;;;;5072655;28;20099;-43
2023/08/18 00:19:44;;;;;;;4.22;3.83;;;19.30;99.90;;;;;;5063411;28;20375;-43
2023/08/18 00:22:10;;;;;;;4.43;4.03;;;19.20;99.90;;;;;;5073568;28;20392;-42
2023/08/18 00:24:36;;;;;;;4.20;3.80;;;19.20;99.90;;;;;;5066112;28;20144;-43
2023/08/18 00:27:02;;;;;;;3.60;3.30;;;19.20;99.90;;;;;;5079380;28;20472;-43
2023/08/18 00:29:28;;;;;;;4.20;3.60;;;19.20;99.90;;;;;;5072237;28;20077;-42
2023/08/18 00:31:57;;;;;;;3.58;3.25;;;19.20;99.90;;;;;;5073762;28;20036;-42
2023/08/18 00:34:23;;;;;;;3.50;3.20;;;19.10;99.90;;;;;;5086763;28;20024;-41
2023/08/18 00:36:49;;;;;;;4.13;3.83;;;19.10;99.90;;;;;;5074113;28;20032;-42
2023/08/18 00:39:15;;;;;;;3.28;2.97;;;19.10;99.90;;;;;;5086213;28;20297;-43
2023/08/18 00:41:41;;;;;;;3.70;3.40;;;19.10;99.90;;;;;;5082576;28;20568;-44
2023/08/18 00:44:09;;;;;;;3.22;3.03;;;19.10;99.90;;;;;;5069502;28;20102;-43
2023/08/18 00:46:35;;;;;;;3.55;3.28;;;19.10;99.90;;;;;;5074930;28;20012;-43
2023/08/18 00:49:04;;;;;;;4.20;3.80;;;19.10;99.90;;;;;;5072315;28;20505;-43
2023/08/18 00:51:34;;;;;;;3.90;3.60;;;19.10;99.90;;;;;;5072187;28;20019;-43
2023/08/18 00:54:02;;;;;;;3.65;3.35;;;19.00;99.90;;;;;;5072777;28;20590;-43
2023/08/18 00:56:28;;;;;;;4.43;3.75;;;19.10;99.90;;;;;;5070908;28;20433;-41
2023/08/18 00:59:01;;;;;;;3.60;3.30;;;19.10;99.90;;;;;;5075321;28;20017;-42
2023/08/18 01:01:27;;;;;;;3.90;3.50;;;19.00;99.90;;;;;;5068958;28;20133;-42
2023/08/18 01:03:53;;;;;;;3.58;3.28;;;19.00;99.90;;;;;;5078014;28;20082;-42
2023/08/18 01:06:19;;;;;;;3.53;3.22;;;19.10;99.90;;;;;;5067360;28;20012;-42
2023/08/18 01:08:45;;;;;;;3.38;3.08;;;19.10;99.90;;;;;;5069860;28;20032;-42
2023/08/18 01:11:29;;;;;;;3.60;3.30;;;19.10;99.90;;;;;;5073138;28;20139;-42
2023/08/18 01:14:20;;;;;;;3.72;3.38;;;19.10;99.90;;;;;;5078054;28;20369;-42
2023/08/18 01:16:53;;;;;;;3.60;3.30;;;19.00;99.90;;;;;;5068445;28;20031;-42
2023/08/18 01:19:21;;;;;;;3.35;2.92;;;19.10;99.90;;;;;;5076173;28;20024;-44
2023/08/18 01:21:51;;;;;;;3.88;3.50;;;19.00;99.90;;;;;;5066717;28;20643;-43
2023/08/18 01:24:17;;;;;;;4.00;3.60;;;19.00;99.90;;;;;;5076605;28;20040;-44
2023/08/18 01:26:43;;;;;;;6.25;3.80;;;19.00;99.90;;;;;;5065483;28;20016;-44
2023/08/18 01:29:08;;;;;;;3.75;3.35;;;19.00;99.90;;;;;;5080126;28;20031;-43
2023/08/18 01:31:36;;;;;;;3.80;3.50;;;19.00;99.90;;;;;;5078019;28;20020;-43
2023/08/18 01:34:11;;;;;;;3.75;3.45;;;19.00;99.90;;;;;;5077932;28;20024;-43
2023/08/18 01:36:41;;;;;;;4.22;3.50;;;19.00;99.90;;;;;;5067398;28;20055;-43
2023/08/18 01:39:08;;;;;;;3.50;3.20;;;18.90;99.90;;;;;;5078544;28;20571;-43
2023/08/18 01:41:35;;;;;;;3.80;3.40;;;18.90;99.90;;;;;;5075715;28;20040;-43
2023/08/18 01:44:00;;;;;;;3.90;3.55;;;18.90;99.90;;;;;;5073612;28;20047;-42
2023/08/18 01:46:26;;;;;;;3.65;3.33;;;18.90;99.90;;;;;;5085136;28;20028;-43
2023/08/18 01:48:52;;;;;;;3.63;3.33;;;18.90;99.90;;;;;;5077084;28;20031;-44
2023/08/18 01:51:17;;;;;;;3.63;3.33;;;18.90;99.90;;;;;;5082784;28;20020;-42
2023/08/18 01:53:43;;;;;;;5.07;3.50;;;18.90;99.90;;;;;;5080073;28;20040;-45
2023/08/18 01:56:08;;;;;;;4.00;3.60;;;18.90;99.90;;;;;;5078805;28;20020;-43
2023/08/18 01:58:35;;;;;;;3.25;2.95;;;18.90;99.90;;;;;;5082165;28;20043;-43
2023/08/18 02:01:01;;;;;;;4.05;3.67;;;18.90;99.90;;;;;;5076660;28;20020;-42
2023/08/18 02:03:27;;;;;;;3.80;3.45;;;18.80;99.90;;;;;;5083789;28;20028;-42
2023/08/18 02:06:13;;;;;;;3.92;3.50;;;18.90;99.90;;;;;;5075398;28;20031;-42
2023/08/18 02:08:39;;;;;;;3.28;2.97;;;18.80;99.90;;;;;;5071733;28;20029;-42
2023/08/18 02:11:05;;;;;;;3.60;3.30;;;18.80;99.90;;;;;;5082277;28;20042;-42
2023/08/18 02:13:31;;;;;;;3.28;2.97;;;18.80;99.90;;;;;;5084799;28;20134;-42
2023/08/18 02:16:00;;;;;;;3.58;3.28;;;18.80;99.90;;;;;;5075789;28;20047;-43
2023/08/18 02:18:25;;;;;;;4.43;3.60;;;18.80;99.90;;;;;;5085601;28;20170;-42
2023/08/18 02:21:02;;;;;;;4.40;4.00;;;18.80;99.90;;;;;;5073470;28;20103;-43
2023/08/18 02:23:28;;;;;;;3.75;3.00;;;18.80;99.90;;;;;;5085261;28;20047;-43
2023/08/18 02:26:04;;;;;;;3.33;3.03;;;18.80;99.90;;;;;;5073120;28;20020;-43
2023/08/18 02:28:30;;;;;;;3.08;2.88;;;18.70;99.90;;;;;;5083682;28;20425;-42
2023/08/18 02:31:10;;;;;;;4.20;2.83;;;18.70;99.90;;;;;;5070306;28;20111;-43
2023/08/18 02:33:36;;;;;;;3.42;3.13;;;18.70;99.90;;;;;;5084343;28;20043;-44
2023/08/18 02:36:02;;;;;;;4.57;3.85;;;18.70;99.90;;;;;;5070614;28;20380;-43
2023/08/18 02:38:28;;;;;;;4.43;3.88;;;18.70;99.90;;;;;;5083904;28;20031;-41
2023/08/18 02:40:54;;;;;;;4.88;3.63;;;18.70;99.90;;;;;;5073335;28;20574;-44
2023/08/18 02:43:21;;;;;;;3.75;3.35;;;18.70;99.90;;;;;;5082847;28;20036;-43
2023/08/18 02:45:47;;;;;;;5.03;3.85;;;18.60;99.90;;;;;;5073928;28;20056;-43
2023/08/18 02:48:13;;;;;;;4.35;3.95;;;18.60;99.90;;;;;;5081370;28;20070;-42
2023/08/18 02:50:39;;;;;;;3.97;3.67;;;18.60;99.90;;;;;;5076918;28;20476;-42
2023/08/18 02:53:06;;;;;;;5.50;4.10;;;18.60;99.90;;;;;;5078499;28;20032;-42
2023/08/18 02:55:34;;;;;;;4.05;3.65;;;18.60;99.90;;;;;;5080452;28;20020;-44
2023/08/18 02:58:00;;;;;;;5.65;4.43;;;18.60;99.90;;;;;;5076154;28;20020;-44
2023/08/18 03:00:26;;;;;;;4.72;4.13;;;18.60;99.90;;;;;;5083518;28;20016;-44
2023/08/18 03:02:52;;;;;;;4.28;3.88;;;18.60;99.90;;;;;;5074875;28;20084;-43
2023/08/18 03:05:18;;;;;;;4.32;4.03;;;18.60;99.90;;;;;;5082434;28;20020;-42
2023/08/18 03:07:43;;;;;;;4.15;3.75;;;18.60;99.90;;;;;;5068298;28;20052;-42
2023/08/18 03:10:09;;;;;;;4.50;4.10;;;18.60;99.90;;;;;;5063670;28;20024;-43
2023/08/18 03:12:35;;;;;;;4.35;3.95;;;18.60;99.90;;;;;;5074581;28;20123;-43
2023/08/18 03:15:01;;;;;;;5.38;3.78;;;18.60;99.90;;;;;;5064803;28;20028;-42
2023/08/18 03:17:26;;;;;;;4.95;4.20;;;18.60;99.90;;;;;;5079020;28;20298;-43
2023/08/18 03:19:52;;;;;;;4.72;4.28;;;18.70;99.90;;;;;;5063811;28;20035;-43
2023/08/18 03:22:18;;;;;;;4.65;4.25;;;18.60;99.90;;;;;;5075197;28;20586;-43
2023/08/18 03:24:43;;;;;;;4.85;4.22;;;18.60;99.90;;;;;;5065363;28;20021;-43
2023/08/18 03:27:09;;;;;;;5.05;4.00;;;18.60;99.90;;;;;;5071477;28;20142;-43
2023/08/18 03:29:37;;;;;;;4.60;4.20;;;18.60;99.90;;;;;;5068215;28;20102;-43
2023/08/18 03:32:03;;;;;;;5.88;5.30;;;18.60;99.90;;;;;;5070222;28;20039;-43
2023/08/18 03:34:29;;;;;;;6.93;5.20;;;18.60;99.90;;;;;;5069210;28;20024;-43
2023/08/18 03:36:54;;;;;;;5.05;4.55;;;18.60;99.90;;;;;;5066822;28;21283;-43
2023/08/18 03:39:27;;;;;;;4.35;4.05;;;18.60;99.90;;;;;;5070857;28;20055;-43
2023/08/18 03:41:53;;;;;;;5.18;4.68;;;18.60;99.90;;;;;;5064266;28;20158;-42
2023/08/18 03:44:21;;;;;;;6.18;4.70;;;18.60;99.90;;;;;;5073033;28;20135;-43
2023/08/18 03:46:47;;;;;;;5.03;4.50;;;18.60;99.90;;;;;;5074998;28;20099;-43
2023/08/18 03:49:15;;;;;;;4.65;4.22;;;18.60;99.90;;;;;;5074820;28;20551;-42
2023/08/18 03:51:42;;;;;;;6.50;4.60;;;18.60;99.90;;;;;;5064878;28;20032;-42
2023/08/18 03:54:07;;;;;;;5.10;4.70;;;18.60;99.90;;;;;;5073740;28;20048;-42
2023/08/18 03:56:33;;;;;;;5.88;5.38;;;18.70;99.90;;;;;;5064812;28;20024;-42
2023/08/18 03:58:58;;;;;;;7.50;6.20;;;18.60;99.90;;;;;;5074327;28;20368;-43
2023/08/18 04:01:24;;;;;;;6.88;6.18;;;18.60;99.90;;;;;;5063156;28;20074;-42
2023/08/18 04:03:50;;;;;;;7.45;6.75;;;18.60;99.90;;;;;;5076110;28;20062;-43
2023/08/18 04:06:18;;;;;;;7.35;6.63;;;18.60;99.90;;;;;;5063337;28;20031;-42
2023/08/18 04:08:44;;;;;;;7.22;6.53;;;18.60;99.90;;;;;;5073492;28;20024;-43
2023/08/18 04:11:11;;;;;;;6.90;6.20;;;18.60;99.90;;;;;;5064362;28;20104;-42
2023/08/18 04:13:37;;;;;;;7.10;5.95;;;18.50;99.90;;;;;;5071771;28;20389;-42
2023/08/18 04:16:02;;;;;;;7.25;6.15;;;18.50;99.90;;;;;;5075578;28;20038;-43
2023/08/18 04:18:28;;;;;;;8.23;7.43;;;18.50;99.90;;;;;;5077637;28;20361;-43
2023/08/18 04:20:54;;;;;;;7.80;7.00;;;18.50;99.90;;;;;;5076495;28;20038;-43
2023/08/18 04:23:26;;;;;;;7.68;6.88;;;18.50;99.90;;;;;;5078944;28;20103;-43
2023/08/18 04:25:51;;;;;;;7.97;7.18;;;18.50;99.90;;;;;;5074816;28;20028;-43
2023/08/18 04:28:23;;;;;;;7.53;6.63;;;18.50;99.90;;;;;;5077893;28;20082;-43
2023/08/18 04:30:49;;;;;;;9.60;8.65;;;18.50;99.90;;;;;;5072219;28;20107;-44
2023/08/18 04:33:15;;;;;;;9.25;6.75;;;18.50;99.90;;;;;;5081836;28;20024;-43
2023/08/18 04:35:41;;;;;;;7.70;6.95;;;18.50;99.90;;;;;;5072193;28;20062;-43
2023/08/18 04:38:07;;;;;;;8.98;7.85;;;18.40;99.90;;;;;;5081122;28;20047;-43
2023/08/18 04:40:33;;;;;;;8.75;7.85;;;18.40;99.90;;;;;;5071302;28;20387;-44
2023/08/18 04:42:58;;;;;;;9.82;8.07;;;18.40;99.90;;;;;;5082656;28;20036;-43
2023/08/18 04:45:24;;;;;;;7.88;7.03;;;18.40;99.90;;;;;;5068355;28;20102;-44
2023/08/18 04:47:50;;;;;;;8.65;7.50;;;18.40;99.90;;;;;;5082086;28;20039;-44
2023/08/18 04:50:15;;;;;;;7.90;7.05;;;18.50;99.90;;;;;;5069190;28;20021;-43
2023/08/18 04:52:41;;;;;;;10.55;8.32;;;18.50;99.90;;;;;;5081090;28;20028;-44
2023/08/18 04:55:07;;;;;;;8.65;7.72;;;18.50;99.90;;;;;;5073238;28;20107;-44
2023/08/18 04:57:32;;;;;;;10.23;9.18;;;18.50;99.90;;;;;;5078886;28;20542;-43
2023/08/18 04:59:58;;;;;;;13.70;9.75;;;18.50;99.90;;;;;;5075250;28;20031;-43
2023/08/18 05:02:25;;;;;;;12.45;9.70;;;18.50;99.90;;;;;;5077182;28;20036;-43
2023/08/18 05:04:51;;;;;;;10.80;8.77;;;18.40;99.90;;;;;;5079223;28;20065;-44
2023/08/18 05:07:16;;;;;;;11.18;9.98;;;18.50;99.90;;;;;;5073432;28;20028;-44
2023/08/18 05:09:42;;;;;;;12.55;10.13;;;18.40;99.90;;;;;;5066238;28;20468;-43
2023/08/18 05:12:08;;;;;;;12.82;10.88;;;18.40;99.90;;;;;;5075231;28;20033;-43
2023/08/18 05:14:34;;;;;;;12.57;10.25;;;18.40;99.90;;;;;;5068260;28;20028;-43
2023/08/18 05:17:00;;;;;;;10.68;9.48;;;18.40;99.90;;;;;;5077413;28;20028;-43
2023/08/18 05:19:25;;;;;;;10.07;9.07;;;18.40;99.90;;;;;;5066230;28;20024;-43
2023/08/18 05:21:51;;;;;;;10.27;8.88;;;18.50;99.90;;;;;;5073936;28;20050;-43
2023/08/18 05:24:17;;;;;;;10.68;9.57;;;18.50;99.90;;;;;;5085312;28;20075;-43
2023/08/18 05:26:42;;;;;;;9.18;8.13;;;18.50;99.90;;;;;;5073418;28;20032;-43
2023/08/18 05:29:08;;;;;;;10.60;9.50;;;18.50;99.90;;;;;;5084622;28;20123;-43
2023/08/18 05:31:35;;;;;;;10.38;9.13;;;18.50;99.90;;;;;;5082426;28;20016;-43
2023/08/18 05:34:04;;;;;;;10.30;9.30;;;18.60;99.90;;;;;;5066323;28;20487;-43
2023/08/18 05:36:31;;;;;;;11.05;8.45;;;18.60;99.90;;;;;;5075119;28;20428;-43
2023/08/18 05:38:57;;;;;;;14.30;10.55;;;18.60;99.90;;;;;;5069549;28;20032;-44
2023/08/18 05:41:26;;;;;;;12.52;11.00;;;18.60;99.90;;;;;;5079193;28;20032;-43
2023/08/18 05:43:51;;;;;;;12.40;9.93;;;18.60;99.90;;;;;;5074589;28;20032;-43
2023/08/18 05:46:17;;;;;;;11.98;10.60;;;18.60;99.90;;;;;;5080104;28;20090;-44
2023/08/18 05:48:43;;;;;;;16.42;12.32;;;18.70;99.90;;;;;;5078555;28;20475;-43
2023/08/18 05:51:08;;;;;;;12.32;9.40;;;18.70;99.90;;;;;;5082915;28;20429;-44
2023/08/18 05:53:34;;;;;;;12.07;10.02;;;18.70;99.90;;;;;;5071961;28;20177;-43
2023/08/18 05:56:00;;;;;;;12.35;10.27;;;18.80;99.90;;;;;;5081508;28;20023;-44
2023/08/18 05:58:26;;;;;;;14.25;10.75;;;18.80;99.90;;;;;;5072363;28;20405;-44
2023/08/18 06:00:57;;;;;;;14.30;10.75;;;18.90;99.90;;;;;;5082792;28;20028;-44
2023/08/18 06:03:23;;;;;;;12.63;10.00;;;18.90;99.90;;;;;;5075516;28;20055;-44
2023/08/18 06:05:52;;;;;;;12.25;10.00;;;18.90;99.90;;;;;;5065568;28;20411;-44
2023/08/18 06:08:17;;;;;;;11.55;8.90;;;18.90;99.90;;;;;;5070913;28;20021;-44
2023/08/18 06:10:43;;;;;;;13.73;10.23;;;18.90;99.90;;;;;;5065986;28;20021;-42
2023/08/18 06:13:09;;;;;;;12.25;8.98;;;19.00;99.90;;;;;;5076845;28;20020;-43
2023/08/18 06:15:36;;;;;;;13.23;9.73;;;19.00;99.90;;;;;;5084114;28;20026;-42
2023/08/18 06:18:02;;;;;;;12.48;9.25;;;19.00;99.90;;;;;;5080543;28;20034;-43
2023/08/18 06:20:27;;;;;;;10.30;8.18;;;19.00;99.90;;;;;;5066165;28;20028;-43
2023/08/18 06:22:53;;;;;;;13.18;9.02;;;19.10;99.90;;;;;;5066979;28;20476;-43
2023/08/18 06:25:22;;;;;;;9.73;8.65;;;19.10;99.90;;;;;;5079540;28;20352;-44
2023/08/18 06:27:47;;;;;;;10.98;9.13;;;19.20;99.90;;;;;;5078992;28;20705;-44
2023/08/18 06:30:13;;;;;;;12.95;9.95;;;19.20;99.90;;;;;;5077397;28;20069;-43
2023/08/18 06:32:39;;;;;;;11.18;8.65;;;19.20;99.90;;;;;;5082068;28;20135;-44
2023/08/18 06:35:05;;;;;;;12.13;10.10;;;19.20;99.90;;;;;;5075074;28;20024;-44
2023/08/18 06:37:33;;;;;;;15.52;11.02;;;19.30;99.90;;;;;;5082263;28;20051;-44
2023/08/18 06:39:59;;;;;;;12.07;9.32;;;19.30;99.90;;;;;;5073534;28;20020;-43
2023/08/18 06:42:25;;;;;;;13.27;9.77;;;19.30;99.90;;;;;;5080268;28;20091;-43
2023/08/18 06:44:50;;;;;;;11.90;8.70;;;19.30;99.90;;;;;;5072883;28;20039;-43
2023/08/18 06:47:16;;;;;;;10.15;8.32;;;19.30;99.90;;;;;;5084078;28;20374;-44
2023/08/18 06:49:41;;;;;;;11.95;9.20;;;19.40;99.90;;;;;;5070914;28;20685;-43
2023/08/18 06:52:10;;;;;;;8.57;7.18;;;19.40;99.90;;;;;;5084662;28;20430;-43
2023/08/18 06:54:36;;;;;;;9.95;7.53;;;19.50;99.90;;;;;;5072163;28;20500;-44
2023/08/18 06:57:01;;;;;;;11.57;8.63;;;19.60;99.90;;;;;;5068920;28;20025;-43
2023/08/18 06:59:30;;;;;;;9.50;8.13;;;19.60;99.90;;;;;;5072014;28;20059;-44
2023/08/18 07:01:56;;;;;;;11.55;8.90;;;19.70;99.90;;;;;;5072730;28;20525;-44
2023/08/18 07:04:22;;;;;;;11.10;8.73;;;19.70;99.90;;;;;;5073922;28;20032;-44
2023/08/18 07:06:47;;;;;;;11.98;9.15;;;19.70;99.90;;;;;;5067290;28;20024;-43
2023/08/18 07:09:13;;;;;;;12.50;7.97;;;19.70;99.90;;;;;;5075605;28;20020;-43
2023/08/18 07:11:38;;;;;;;11.95;8.95;;;19.80;99.90;;;;;;5079041;28;20111;-43
2023/08/18 07:14:04;;;;;;;13.07;8.13;;;19.90;99.90;;;;;;5080215;28;20028;-44
2023/08/18 07:16:30;;;;;;;7.00;6.22;;;20.00;99.90;;;;;;5064175;28;20055;-43
2023/08/18 07:18:56;;;;;;;8.00;6.68;;;20.10;99.90;;;;;;5064594;28;20647;-43
2023/08/18 07:21:21;;;;;;;8.05;6.22;;;20.20;99.90;;;;;;5082735;28;20032;-43
2023/08/18 07:23:47;;;;;;;8.00;5.63;;;20.30;99.90;;;;;;5082880;28;20119;-43
2023/08/18 07:26:13;;;;;;;7.18;6.05;;;20.40;99.90;;;;;;5071231;28;20124;-43
2023/08/18 07:28:39;;;;;;;6.70;6.03;;;20.40;99.90;;;;;;5075271;28;20471;-44
2023/08/18 07:31:05;;;;;;;7.15;6.22;;;20.50;99.90;;;;;;5070589;28;20020;-43
2023/08/18 07:33:31;;;;;;;6.50;5.45;;;20.60;99.90;;;;;;5077431;28;20109;-43
2023/08/18 07:35:57;;;;;;;7.80;6.40;;;20.60;99.90;;;;;;5075892;28;20382;-43
2023/08/18 07:38:23;;;;;;;7.15;5.70;;;20.70;99.90;;;;;;5063401;28;20035;-42
2023/08/18 07:40:49;;;;;;;9.93;7.10;;;20.70;99.90;;;;;;5073713;28;20020;-42
2023/08/18 07:43:14;;;;;;;10.00;6.90;;;20.80;99.90;;;;;;5064776;28;20339;-43
2023/08/18 07:45:40;;;;;;;6.38;5.70;;;20.80;99.90;;;;;;5069734;28;20027;-43
2023/08/18 07:48:06;;;;;;;7.15;5.70;;;20.80;99.90;;;;;;5067271;28;20635;-43
2023/08/18 07:50:32;;;;;;;7.60;6.32;;;20.80;99.90;;;;;;5068908;28;20486;-43
2023/08/18 07:52:58;;;;;;;6.95;6.03;;;20.90;99.90;;;;;;5070021;28;20150;-43
2023/08/18 07:55:23;;;;;;;7.53;6.35;;;21.00;99.90;;;;;;5066121;28;20522;-43
2023/08/18 07:57:49;;;;;;;8.00;6.10;;;21.10;99.90;;;;;;5074341;28;20025;-44
2023/08/18 08:00:19;;;;;;;7.97;7.18;;;21.10;99.90;;;;;;5064209;28;20020;-43
2023/08/18 08:02:45;;;;;;;10.27;8.43;;;21.10;99.90;;;;;;5079790;28;20043;-43
2023/08/18 08:05:12;;;;;;;10.15;9.00;;;21.10;99.90;;;;;;5082192;28;20032;-45
2023/08/18 08:07:38;;;;;;;6.88;6.18;;;21.10;99.90;;;;;;5075036;28;20017;-43
2023/08/18 08:10:04;;;;;;;6.47;5.03;;;21.10;99.90;;;;;;5082427;28;20537;-35
2023/08/18 08:12:31;;;;;;;6.70;5.72;;;21.10;99.90;;;;;;5071131;28;20107;-37
2023/08/18 08:14:58;;;;;;;5.95;5.30;;;21.20;99.90;;;;;;5078517;28;20488;-38
2023/08/18 08:17:24;;;;;;;7.15;5.88;;;21.20;99.90;;;;;;5073803;28;20032;-37
2023/08/18 08:19:50;;;;;;;11.27;8.20;;;21.30;99.90;;;;;;5082625;28;20432;-36
2023/08/18 08:22:16;;;;;;;7.80;6.55;;;21.30;99.90;;;;;;5067557;28;20029;-36
2023/08/18 08:24:45;;;;;;;10.02;6.18;;;21.40;99.90;;;;;;5082942;28;20020;-37
2023/08/18 08:27:11;;;;;;;7.35;6.40;;;21.50;99.90;;;;;;5074495;28;20143;-36
2023/08/18 08:29:36;;;;;;;7.90;5.70;;;21.60;99.90;;;;;;5080021;28;20032;-37
2023/08/18 08:32:04;;;;;;;8.70;6.05;;;21.70;99.90;;;;;;5077483;28;20028;-35
2023/08/18 08:34:30;;;;;;;7.32;6.10;;;21.80;99.90;;;;;;5078691;28;20139;-35
2023/08/18 08:36:55;;;;;;;7.65;6.85;;;21.90;99.90;;;;;;5068105;28;20111;-36
2023/08/18 08:39:21;;;;;;;6.53;5.82;;;22.00;99.90;;;;;;5072010;28;20869;-37
2023/08/18 08:41:46;;;;;;;7.82;7.03;;;22.10;99.90;;;;;;5065723;28;20043;-35
2023/08/18 08:44:13;;;;;;;7.88;7.07;;;22.10;99.90;;;;;;5075147;28;20127;-36
2023/08/18 08:46:40;;;;;;;7.72;6.95;;;22.10;99.90;;;;;;5069130;28;20044;-35
2023/08/18 08:49:07;;;;;;;9.00;7.90;;;22.10;99.90;;;;;;5078061;28;20028;-37
2023/08/18 08:51:37;;;;;;;9.15;8.25;;;22.10;99.90;;;;;;5068620;28;20365;-35
2023/08/18 08:54:06;;;;;;;9.18;8.27;;;22.10;99.90;;;;;;5078371;28;20135;-36
2023/08/18 08:56:34;;;;;;;10.20;9.05;;;22.00;99.90;;;;;;5067707;28;20025;-37
2023/08/18 08:59:01;;;;;;;11.07;9.23;;;22.10;99.90;;;;;;5071855;28;20097;-36
2023/08/18 09:01:26;;;;;;;10.43;9.27;;;22.10;99.90;;;;;;5088564;28;20118;-35
2023/08/18 09:03:53;;;;;;;8.30;7.45;;;22.10;99.90;;;;;;5080773;28;20141;-36
2023/08/18 09:06:19;;;;;;;9.95;8.48;;;22.00;99.90;;;;;;5081433;28;20036;-36
2023/08/18 09:08:44;;;;;;;8.50;7.15;;;22.10;99.90;;;;;;5079367;28;20142;-36
2023/08/18 09:11:10;;;;;;;8.43;7.38;;;22.10;99.90;;;;;;5085340;28;20379;-35
2023/08/18 09:13:36;;;;;;;7.35;6.35;;;22.10;99.90;;;;;;5084371;28;20455;-36
2023/08/18 09:16:03;;;;;;;6.57;5.97;;;22.10;99.90;;;;;;5074561;28;20107;-35
2023/08/18 09:18:34;;;;;;;5.30;4.80;;;22.20;99.90;;;;;;5074873;28;20021;-36
2023/08/18 09:21:04;;;;;;;5.75;5.15;;;22.30;99.90;;;;;;5068148;28;20134;-35
2023/08/18 09:23:30;;;;;;;5.35;4.80;;;22.50;99.90;;;;;;5067852;28;20076;-36
2023/08/18 09:25:57;;;;;;;5.68;5.18;;;22.60;99.90;;;;;;5077766;28;20068;-36
2023/08/18 09:28:24;;;;;;;5.65;5.15;;;22.70;99.90;;;;;;5081879;28;20032;-37
2023/08/18 09:30:52;;;;;;;7.60;5.65;;;22.70;99.90;;;;;;5078536;28;20162;-37
2023/08/18 09:33:23;;;;;;;5.65;5.00;;;22.80;99.90;;;;;;5067215;28;20050;-38
2023/08/18 09:35:57;;;;;;;4.85;4.45;;;22.90;99.90;;;;;;5085479;28;20104;-36
2023/08/18 09:38:25;;;;;;;7.18;4.85;;;23.00;99.90;;;;;;5085029;28;20111;-36
2023/08/18 09:40:57;;;;;;;4.05;3.67;;;23.10;99.90;;;;;;5077575;28;20347;-38
2023/08/18 09:43:29;;;;;;;4.30;3.90;;;23.10;99.90;;;;;;5067721;28;20619;-35
2023/08/18 09:45:57;;;;;;;4.97;4.38;;;23.20;99.90;;;;;;5077724;28;20089;-38
2023/08/18 09:48:30;;;;;;;5.20;4.70;;;23.30;99.90;;;;;;5066913;28;20025;-41
2023/08/18 09:50:58;;;;;;;5.72;4.40;;;23.40;99.90;;;;;;5075296;28;20069;-37
2023/08/18 09:53:31;;;;;;;4.07;3.78;;;23.40;99.90;;;;;;5085037;28;20108;-36
2023/08/18 09:56:12;;;;;;;4.20;3.80;;;23.50;99.90;;;;;;5073175;28;20024;-36
2023/08/18 09:58:40;;;;;;;4.60;4.20;;;23.40;99.90;;;;;;5087194;28;20047;-37
2023/08/18 10:01:08;;;;;;;4.68;4.28;;;23.30;99.90;;;;;;5072485;28;20780;-37
2023/08/18 10:03:37;;;;;;;4.07;3.72;;;23.20;99.90;;;;;;5086342;28;20087;-46
2023/08/18 10:06:06;;;;;;;3.78;3.38;;;23.10;99.90;;;;;;5082185;28;20078;-37
2023/08/18 10:08:33;;;;;;;4.70;4.07;;;23.10;99.90;;;;;;5078799;28;20078;-38
2023/08/18 10:10:59;;;;;;;3.92;3.53;;;23.00;99.90;;;;;;5078554;28;20073;-35
2023/08/18 10:13:27;;;;;;;4.88;4.45;;;22.90;99.90;;;;;;5067420;28;20040;-37
2023/08/18 10:15:54;;;;;;;4.65;4.20;;;22.90;99.90;;;;;;5075824;28;20090;-37
2023/08/18 10:18:21;;;;;;;4.70;4.30;;;22.80;99.90;;;;;;5086947;28;20116;-37
2023/08/18 10:20:51;;;;;;;5.38;4.82;;;22.80;99.90;;;;;;5075325;28;20020;-36
2023/08/18 10:23:18;;;;;;;5.40;3.78;;;22.80;99.90;;;;;;5080877;28;20028;-36
2023/08/18 10:25:45;;;;;;;4.80;4.40;;;22.80;99.90;;;;;;5078666;28;20499;-36
2023/08/18 10:28:36;;;;;;;5.22;4.72;;;22.70;99.90;;;;;;5076358;28;21009;-36
2023/08/18 10:31:10;;;;;;;4.88;4.47;;;22.70;99.90;;;;;;5070833;28;20024;-36
2023/08/18 10:33:50;;;;;;;5.10;4.60;;;22.70;99.90;;;;;;5071454;28;20047;-35
2023/08/18 10:36:29;;;;;;;5.18;4.78;;;22.70;99.90;;;;;;5079301;28;20512;-35
2023/08/18 10:38:54;;;;;;;5.18;4.68;;;22.70;99.90;;;;;;5069125;28;20028;-37
2023/08/18 10:41:27;;;;;;;5.03;4.53;;;22.80;99.90;;;;;;5068414;28;20024;-37
2023/08/18 10:43:55;;;;;;;5.82;5.30;;;22.80;99.90;;;;;;5079806;28;20430;-37
2023/08/18 10:46:33;;;;;;;5.65;5.15;;;22.80;99.90;;;;;;5080394;28;20021;-36
2023/08/18 10:48:59;;;;;;;5.70;5.20;;;22.80;99.90;;;;;;5065597;28;20055;-36
2023/08/18 10:51:28;;;;;;;4.45;4.15;;;22.90;99.90;;;;;;5069775;28;20028;-35
2023/08/18 10:53:56;;;;;;;5.55;5.15;;;22.90;99.90;;;;;;5079511;28;20052;-36
2023/08/18 10:56:21;;;;;;;5.88;5.35;;;23.00;99.90;;;;;;5082858;28;20359;-37
2023/08/18 10:58:48;;;;;;;5.68;5.18;;;23.10;99.90;;;;;;5075671;28;20098;-35
2023/08/18 11:01:15;;;;;;;7.10;6.40;;;23.10;99.90;;;;;;5084387;28;20112;-36
2023/08/18 11:03:41;;;;;;;5.80;5.22;;;23.20;99.90;;;;;;5073799;28;20096;-35
2023/08/18 11:06:07;;;;;;;6.22;5.63;;;23.10;99.90;;;;;;5073449;28;20120;-36
2023/08/18 11:08:32;;;;;;;5.95;5.43;;;23.10;99.90;;;;;;5074010;28;20031;-37
2023/08/18 11:10:58;;;;;;;4.93;4.53;;;23.10;99.90;;;;;;5080480;28;20036;-36
2023/08/18 11:13:29;;;;;;;4.30;4.00;;;23.10;99.90;;;;;;5071287;28;20457;-35
2023/08/18 11:15:58;;;;;;;5.15;4.72;;;23.20;99.90;;;;;;5086260;28;20024;-36
2023/08/18 11:18:24;;;;;;;5.63;5.15;;;23.20;99.90;;;;;;5071637;28;20029;-37
2023/08/18 11:20:51;;;;;;;6.00;5.50;;;23.20;99.90;;;;;;5085974;28;20028;-37
2023/08/18 11:23:20;;;;;;;5.90;5.32;;;23.20;99.90;;;;;;5073266;28;20562;-36
2023/08/18 11:25:46;;;;;;;5.82;5.32;;;23.30;99.90;;;;;;5083094;28;20024;-36
2023/08/18 11:28:15;;;;;;;6.90;6.25;;;23.30;99.90;;;;;;5075622;28;20033;-36
2023/08/18 11:30:41;;;;;;;6.45;5.43;;;23.30;99.90;;;;;;5078688;28;20463;-36
2023/08/18 11:33:06;;;;;;;7.00;6.30;;;23.40;99.90;;;;;;5077447;28;20042;-36
2023/08/18 11:35:33;;;;;;;6.13;5.57;;;23.40;99.90;;;;;;5068826;28;20600;-36
2023/08/18 11:38:02;;;;;;;4.82;4.32;;;23.50;99.90;;;;;;5067145;28;20153;-37
2023/08/18 11:40:27;;;;;;;9.10;8.20;;;23.50;99.90;;;;;;5071468;28;20496;-37
2023/08/18 11:42:54;;;;;;;5.82;5.32;;;23.50;99.90;;;;;;5066157;28;20121;-35
2023/08/18 11:45:23;;;;;;;4.80;4.43;;;23.50;99.90;;;;;;5078155;28;20197;-35
2023/08/18 11:47:58;;;;;;;4.75;4.38;;;23.60;99.90;;;;;;5083353;28;20025;-36
2023/08/18 11:50:38;;;;;;;3.70;3.40;;;23.60;99.90;;;;;;5072196;28;20371;-36
2023/08/18 11:53:05;;;;;;;4.90;4.50;;;23.70;99.90;;;;;;5080847;28;20035;-36
2023/08/18 11:55:41;;;;;;;5.47;5.00;;;23.80;99.90;;;;;;5073105;28;20428;-35
2023/08/18 11:58:10;;;;;;;7.57;6.90;;;23.80;99.90;;;;;;5082999;28;20017;-36
2023/08/18 12:00:39;;;;;;;5.85;5.25;;;23.80;99.90;;;;;;5073044;28;20019;-36
2023/08/18 12:03:18;;;;;;;5.35;4.85;;;23.90;99.90;;;;;;5082601;28;20032;-36
2023/08/18 12:05:43;;;;;;;5.13;4.72;;;23.90;99.90;;;;;;5068653;28;20120;-36
2023/08/18 12:08:10;;;;;;;4.25;3.95;;;24.00;99.90;;;;;;5068786;28;20458;-34
2023/08/18 12:10:38;;;;;;;5.40;4.90;;;24.00;99.90;;;;;;5068536;28;20020;-36
2023/08/18 12:13:04;;;;;;;7.20;6.60;;;24.00;99.90;;;;;;5063488;28;20055;-33
2023/08/18 12:15:29;;;;;;;8.73;7.93;;;24.10;99.90;;;;;;5067427;28;20037;-34
2023/08/18 12:17:55;;;;;;;6.47;5.88;;;24.00;99.90;;;;;;5082926;28;20031;-35
2023/08/18 12:20:23;;;;;;;5.07;4.53;;;24.00;99.90;;;;;;5077886;28;20062;-35
2023/08/18 12:22:50;;;;;;;6.57;5.97;;;24.10;99.90;;;;;;5063815;28;20040;-36
2023/08/18 12:25:16;;;;;;;4.78;4.38;;;24.20;99.90;;;;;;5073715;28;20031;-36
2023/08/18 12:27:46;;;;;;;4.80;4.40;;;24.20;99.90;;;;;;5064978;28;20550;-35
2023/08/18 12:30:15;;;;;;;5.72;5.15;;;24.20;99.90;;;;;;5070890;28;20533;-35
2023/08/18 12:32:42;;;;;;;4.25;3.95;;;24.20;99.90;;;;;;5067931;28;20029;-37
2023/08/18 12:35:08;;;;;;;4.82;4.43;;;24.20;99.90;;;;;;5067045;28;20411;-36
2023/08/18 12:37:34;;;;;;;5.40;4.80;;;24.30;99.90;;;;;;5078193;28;20631;-35
2023/08/18 12:40:00;;;;;;;5.85;5.35;;;24.30;99.90;;;;;;5079383;28;20504;-36
2023/08/18 12:42:28;;;;;;;4.43;4.13;;;24.40;99.90;;;;;;5073416;28;20050;-37
2023/08/18 12:44:57;;;;;;;5.43;4.95;;;24.40;99.90;;;;;;5080741;28;20169;-37